sensor_id;sensor_type;location;lat;lon;timestamp;pressure;altitude;pressure_sealevel;temperature;humidity
82746;BME280;72484;50.004;14.356;2024-03-02T00:03:02;97005.45;;;11.24;86.84
82746;BME280;72484;50.004;14.356;2024-03-02T00:07:20;97006.63;;;11.28;86.85
82746;BME280;72484;50.004;14.356;2024-03-02T00:11:00;97000.83;;;11.30;86.72
82746;BME280;72484;50.004;14.356;2024-03-02T00:14:18;97003.51;;;11.28;86.24
82746;BME280;72484;50.004;14.356;2024-03-02T00:18:35;96996.69;;;11.17;86.10
82746;BME280;72484;50.004;14.356;2024-03-02T00:21:55;97000.05;;;10.93;87.26
82746;BME280;72484;50.004;14.356;2024-03-02T00:26:14;97004.77;;;10.90;88.29
82746;BME280;72484;50.004;14.356;2024-03-02T00:29:32;97007.42;;;10.88;88.70
82746;BME280;72484;50.004;14.356;2024-03-02T00:33:34;97008.84;;;10.89;88.68
82746;BME280;72484;50.004;14.356;2024-03-02T00:37:51;97001.06;;;10.97;88.69
82746;BME280;72484;50.004;14.356;2024-03-02T00:41:19;96996.92;;;11.01;87.90
82746;BME280;72484;50.004;14.356;2024-03-02T00:45:41;96995.16;;;11.04;88.46
82746;BME280;72484;50.004;14.356;2024-03-02T00:49:20;96994.67;;;11.08;88.19
82746;BME280;72484;50.004;14.356;2024-03-02T00:52:53;96993.23;;;11.08;88.19
82746;BME280;72484;50.004;14.356;2024-03-02T00:56:31;96991.95;;;11.12;87.60
82746;BME280;72484;50.004;14.356;2024-03-02T00:59:50;97002.40;;;11.02;87.76
82746;BME280;72484;50.004;14.356;2024-03-02T01:04:08;97003.63;;;10.87;88.39
82746;BME280;72484;50.004;14.356;2024-03-02T01:07:27;97011.40;;;10.68;88.71
82746;BME280;72484;50.004;14.356;2024-03-02T01:11:28;97013.17;;;10.48;89.58
82746;BME280;72484;50.004;14.356;2024-03-02T01:15:45;97019.89;;;10.36;90.65
82746;BME280;72484;50.004;14.356;2024-03-02T01:19:24;97017.73;;;10.28;91.45
82746;BME280;72484;50.004;14.356;2024-03-02T01:23:01;97014.45;;;10.25;92.03
82746;BME280;72484;50.004;14.356;2024-03-02T01:26:39;97017.77;;;10.23;92.36
82746;BME280;72484;50.004;14.356;2024-03-02T01:30:18;97011.90;;;10.22;92.42
82746;BME280;72484;50.004;14.356;2024-03-02T01:33:54;97008.13;;;10.18;92.79
82746;BME280;72484;50.004;14.356;2024-03-02T01:37:15;97010.50;;;10.11;93.63
82746;BME280;72484;50.004;14.356;2024-03-02T01:41:16;97009.25;;;10.14;93.80
82746;BME280;72484;50.004;14.356;2024-03-02T01:45:18;97009.50;;;10.13;93.98
82746;BME280;72484;50.004;14.356;2024-03-02T01:49:36;97004.48;;;10.17;94.37
82746;BME280;72484;50.004;14.356;2024-03-02T01:52:58;97010.63;;;10.17;94.27
82746;BME280;72484;50.004;14.356;2024-03-02T01:57:15;97002.97;;;10.21;94.43
82746;BME280;72484;50.004;14.356;2024-03-02T02:00:54;96997.52;;;10.31;94.06
82746;BME280;72484;50.004;14.356;2024-03-02T02:04:31;96997.27;;;10.32;93.60
82746;BME280;72484;50.004;14.356;2024-03-02T02:07:51;96997.69;;;10.26;93.59
82746;BME280;72484;50.004;14.356;2024-03-02T02:12:09;96993.95;;;10.26;94.03
82746;BME280;72484;50.004;14.356;2024-03-02T02:15:46;96993.77;;;10.23;94.07
82746;BME280;72484;50.004;14.356;2024-03-02T02:19:07;96994.32;;;10.20;94.40
82746;BME280;72484;50.004;14.356;2024-03-02T02:23:09;96996.56;;;10.19;94.62
82746;BME280;72484;50.004;14.356;2024-03-02T02:27:25;96992.29;;;10.20;94.40
82746;BME280;72484;50.004;14.356;2024-03-02T02:30:46;96997.33;;;10.20;94.61
82746;BME280;72484;50.004;14.356;2024-03-02T02:34:46;96995.70;;;10.22;94.41
82746;BME280;72484;50.004;14.356;2024-03-02T02:38:47;96991.09;;;10.25;94.19
82746;BME280;72484;50.004;14.356;2024-03-02T02:42:49;96988.94;;;10.36;95.22
82746;BME280;72484;50.004;14.356;2024-03-02T02:47:06;96988.68;;;10.56;93.61
82746;BME280;72484;50.004;14.356;2024-03-02T02:50:45;96986.58;;;10.65;92.40
82746;BME280;72484;50.004;14.356;2024-03-02T02:54:05;96992.39;;;10.61;91.97
82746;BME280;72484;50.004;14.356;2024-03-02T02:58:05;96994.33;;;10.57;92.19
82746;BME280;72484;50.004;14.356;2024-03-02T03:02:25;96992.70;;;10.62;92.42
82746;BME280;72484;50.004;14.356;2024-03-02T03:06:03;96991.23;;;10.59;91.33
82746;BME280;72484;50.004;14.356;2024-03-02T03:09:24;96991.95;;;10.44;91.51
82746;BME280;72484;50.004;14.356;2024-03-02T03:13:25;96993.82;;;10.28;92.29
82746;BME280;72484;50.004;14.356;2024-03-02T03:17:25;96997.17;;;10.20;93.12
82746;BME280;72484;50.004;14.356;2024-03-02T03:21:25;97002.33;;;10.12;93.33
82746;BME280;72484;50.004;14.356;2024-03-02T03:25:43;97000.86;;;10.06;93.95
82746;BME280;72484;50.004;14.356;2024-03-02T03:29:04;97001.92;;;10.01;94.66
82746;BME280;72484;50.004;14.356;2024-03-02T03:33:04;97006.48;;;9.96;93.97
82746;BME280;72484;50.004;14.356;2024-03-02T03:37:22;97006.98;;;9.90;93.80
82746;BME280;72484;50.004;14.356;2024-03-02T03:41:01;97007.80;;;9.81;93.98
82746;BME280;72484;50.004;14.356;2024-03-02T03:44:38;97009.96;;;9.80;94.12
82746;BME280;72484;50.004;14.356;2024-03-02T03:48:00;97010.80;;;9.78;93.93
82746;BME280;72484;50.004;14.356;2024-03-02T03:51:58;97003.00;;;9.78;93.42
82746;BME280;72484;50.004;14.356;2024-03-02T03:56:14;97007.02;;;9.72;93.33
82746;BME280;72484;50.004;14.356;2024-03-02T03:59:53;97007.35;;;9.67;93.54
82746;BME280;72484;50.004;14.356;2024-03-02T04:03:34;97008.79;;;9.66;93.15
82746;BME280;72484;50.004;14.356;2024-03-02T04:06:52;97009.34;;;9.67;93.18
82746;BME280;72484;50.004;14.356;2024-03-02T04:11:11;97011.92;;;9.65;92.87
82746;BME280;72484;50.004;14.356;2024-03-02T04:14:29;97016.36;;;9.61;93.06
82746;BME280;72484;50.004;14.356;2024-03-02T04:18:28;97020.27;;;9.60;92.58
82746;BME280;72484;50.004;14.356;2024-03-02T04:22:27;97023.96;;;9.56;92.74
82746;BME280;72484;50.004;14.356;2024-03-02T04:26:29;97030.23;;;9.52;92.73
82746;BME280;72484;50.004;14.356;2024-03-02T04:30:45;97033.83;;;9.56;92.95
82746;BME280;72484;50.004;14.356;2024-03-02T04:34:23;97039.45;;;9.58;92.64
82746;BME280;72484;50.004;14.356;2024-03-02T04:38:01;97042.51;;;9.60;91.94
82746;BME280;72484;50.004;14.356;2024-03-02T04:41:38;97044.87;;;9.58;92.25
82746;BME280;72484;50.004;14.356;2024-03-02T04:45:17;97041.02;;;9.60;92.10
82746;BME280;72484;50.004;14.356;2024-03-02T04:48:53;97039.82;;;9.59;91.97
82746;BME280;72484;50.004;14.356;2024-03-02T04:52:16;97047.99;;;9.56;91.16
82746;BME280;72484;50.004;14.356;2024-03-02T04:56:33;97052.41;;;9.55;91.01
82746;BME280;72484;50.004;14.356;2024-03-02T05:00:13;97056.86;;;9.51;90.80
82746;BME280;72484;50.004;14.356;2024-03-02T05:03:31;97072.61;;;9.47;90.69
82746;BME280;72484;50.004;14.356;2024-03-02T05:07:32;97075.59;;;9.50;91.09
82746;BME280;72484;50.004;14.356;2024-03-02T05:11:49;97069.50;;;9.57;91.06
82746;BME280;72484;50.004;14.356;2024-03-02T05:15:11;97065.98;;;9.67;90.50
82746;BME280;72484;50.004;14.356;2024-03-02T05:19:11;97069.75;;;9.65;89.53
82746;BME280;72484;50.004;14.356;2024-03-02T05:23:27;97069.95;;;9.58;89.68
82746;BME280;72484;50.004;14.356;2024-03-02T05:27:05;97070.76;;;9.52;89.55
82746;BME280;72484;50.004;14.356;2024-03-02T05:30:26;97079.96;;;9.34;89.58
82746;BME280;72484;50.004;14.356;2024-03-02T05:34:43;97088.84;;;9.27;90.51
82746;BME280;72484;50.004;14.356;2024-03-02T05:38:05;97097.95;;;9.25;91.09
82746;BME280;72484;50.004;14.356;2024-03-02T05:42:21;97102.02;;;9.30;91.36
82746;BME280;72484;50.004;14.356;2024-03-02T05:45:42;97110.91;;;9.31;91.31
82746;BME280;72484;50.004;14.356;2024-03-02T05:49:59;97110.50;;;9.37;91.23
82746;BME280;72484;50.004;14.356;2024-03-02T05:53:20;97116.83;;;9.40;90.97
82746;BME280;72484;50.004;14.356;2024-03-02T05:57:37;97114.58;;;9.48;90.35
82746;BME280;72484;50.004;14.356;2024-03-02T06:01:16;97115.83;;;9.53;89.82
82746;BME280;72484;50.004;14.356;2024-03-02T06:04:55;97121.98;;;9.51;89.32
82746;BME280;72484;50.004;14.356;2024-03-02T06:08:31;97119.95;;;9.44;89.32
82746;BME280;72484;50.004;14.356;2024-03-02T06:11:51;97121.09;;;9.38;89.66
82746;BME280;72484;50.004;14.356;2024-03-02T06:16:08;97121.52;;;9.40;89.79
82746;BME280;72484;50.004;14.356;2024-03-02T06:19:45;97125.82;;;9.41;88.69
82746;BME280;72484;50.004;14.356;2024-03-02T06:23:21;97125.23;;;9.42;88.69
82746;BME280;72484;50.004;14.356;2024-03-02T06:27:00;97125.48;;;9.43;88.06
82746;BME280;72484;50.004;14.356;2024-03-02T06:30:20;97130.11;;;9.41;87.80
82746;BME280;72484;50.004;14.356;2024-03-02T06:34:36;97137.83;;;9.42;87.32
82746;BME280;72484;50.004;14.356;2024-03-02T06:38:15;97136.64;;;9.41;87.59
82746;BME280;72484;50.004;14.356;2024-03-02T06:41:52;97133.80;;;9.45;87.65
82746;BME280;72484;50.004;14.356;2024-03-02T06:45:31;97137.67;;;9.46;87.40
82746;BME280;72484;50.004;14.356;2024-03-02T06:49:08;97138.86;;;9.47;87.16
82746;BME280;72484;50.004;14.356;2024-03-02T06:52:28;97145.64;;;9.47;87.62
82746;BME280;72484;50.004;14.356;2024-03-02T06:56:45;97149.52;;;9.53;87.27
82746;BME280;72484;50.004;14.356;2024-03-02T07:00:23;97155.46;;;9.56;86.95
82746;BME280;72484;50.004;14.356;2024-03-02T07:04:02;97156.11;;;9.59;86.70
82746;BME280;72484;50.004;14.356;2024-03-02T07:07:38;97156.54;;;9.53;86.11
82746;BME280;72484;50.004;14.356;2024-03-02T07:11:16;97160.58;;;9.50;86.89
82746;BME280;72484;50.004;14.356;2024-03-02T07:14:36;97165.91;;;9.44;86.81
82746;BME280;72484;50.004;14.356;2024-03-02T07:19:11;97176.71;;;9.35;87.15
82746;BME280;72484;50.004;14.356;2024-03-02T07:22:48;97183.90;;;9.27;87.23
82746;BME280;72484;50.004;14.356;2024-03-02T07:26:27;97189.85;;;9.23;87.59
82746;BME280;72484;50.004;14.356;2024-03-02T07:30:05;97197.79;;;9.19;87.93
82746;BME280;72484;50.004;14.356;2024-03-02T07:33:25;97198.45;;;9.17;87.60
82746;BME280;72484;50.004;14.356;2024-03-02T07:37:23;97205.64;;;9.16;87.81
82746;BME280;72484;50.004;14.356;2024-03-02T07:41:40;97214.31;;;9.22;87.55
82746;BME280;72484;50.004;14.356;2024-03-02T07:45:18;97212.19;;;9.20;87.72
82746;BME280;72484;50.004;14.356;2024-03-02T07:48:57;97209.49;;;9.19;87.71
82746;BME280;72484;50.004;14.356;2024-03-02T07:52:34;97203.23;;;9.23;88.34
82746;BME280;72484;50.004;14.356;2024-03-02T07:56:11;97191.99;;;9.35;87.78
82746;BME280;72484;50.004;14.356;2024-03-02T07:59:49;97193.77;;;9.45;87.10
82746;BME280;72484;50.004;14.356;2024-03-02T08:03:10;97193.83;;;9.56;86.64
82746;BME280;72484;50.004;14.356;2024-03-02T08:07:26;97191.62;;;9.66;85.51
82746;BME280;72484;50.004;14.356;2024-03-02T08:11:05;97187.96;;;9.76;85.39
82746;BME280;72484;50.004;14.356;2024-03-02T08:14:41;97194.97;;;9.77;84.88
82746;BME280;72484;50.004;14.356;2024-03-02T08:18:19;97192.84;;;9.80;84.39
82746;BME280;72484;50.004;14.356;2024-03-02T08:21:57;97199.43;;;9.82;84.15
82746;BME280;72484;50.004;14.356;2024-03-02T08:25:17;97198.66;;;9.90;85.43
82746;BME280;72484;50.004;14.356;2024-03-02T08:29:15;97203.89;;;10.01;85.03
82746;BME280;72484;50.004;14.356;2024-03-02T08:33:31;97198.91;;;10.14;84.80
82746;BME280;72484;50.004;14.356;2024-03-02T08:36:51;97207.79;;;10.28;84.99
82746;BME280;72484;50.004;14.356;2024-03-02T08:41:08;97210.24;;;10.43;83.06
82746;BME280;72484;50.004;14.356;2024-03-02T08:44:45;97207.22;;;10.47;82.59
82746;BME280;72484;50.004;14.356;2024-03-02T08:48:08;97214.34;;;10.50;82.56
82746;BME280;72484;50.004;14.356;2024-03-02T08:52:24;97208.02;;;10.55;82.77
82746;BME280;72484;50.004;14.356;2024-03-02T08:55:45;97207.50;;;10.53;81.52
82746;BME280;72484;50.004;14.356;2024-03-02T08:59:43;97211.20;;;10.51;82.05
82746;BME280;72484;50.004;14.356;2024-03-02T09:03:59;97209.86;;;10.59;81.89
82746;BME280;72484;50.004;14.356;2024-03-02T09:07:37;97211.65;;;10.66;81.67
82746;BME280;72484;50.004;14.356;2024-03-02T09:11:14;97206.69;;;10.79;81.20
82746;BME280;72484;50.004;14.356;2024-03-02T09:14:52;97207.34;;;10.94;81.35
82746;BME280;72484;50.004;14.356;2024-03-02T09:18:13;97207.30;;;11.01;81.39
82746;BME280;72484;50.004;14.356;2024-03-02T09:22:11;97209.80;;;11.15;80.57
82746;BME280;72484;50.004;14.356;2024-03-02T09:26:27;97212.24;;;11.35;79.01
82746;BME280;72484;50.004;14.356;2024-03-02T09:29:47;97205.81;;;11.48;76.06
82746;BME280;72484;50.004;14.356;2024-03-02T09:34:03;97206.48;;;11.64;76.77
82746;BME280;72484;50.004;14.356;2024-03-02T09:37:41;97203.16;;;11.74;76.09
82746;BME280;72484;50.004;14.356;2024-03-02T09:41:19;97202.95;;;11.87;74.28
82746;BME280;72484;50.004;14.356;2024-03-02T09:44:39;97201.37;;;12.00;73.80
82746;BME280;72484;50.004;14.356;2024-03-02T09:48:55;97195.39;;;12.15;73.88
82746;BME280;72484;50.004;14.356;2024-03-02T09:52:16;97193.98;;;12.10;73.16
82746;BME280;72484;50.004;14.356;2024-03-02T09:56:31;97194.71;;;12.16;73.26
82746;BME280;72484;50.004;14.356;2024-03-02T10:00:11;97195.44;;;12.04;71.77
82746;BME280;72484;50.004;14.356;2024-03-02T10:03:48;97190.95;;;11.87;72.12
82746;BME280;72484;50.004;14.356;2024-03-02T10:07:24;97188.80;;;11.77;72.32
82746;BME280;72484;50.004;14.356;2024-03-02T10:11:02;97196.32;;;11.72;71.69
82746;BME280;72484;50.004;14.356;2024-03-02T10:14:40;97200.69;;;11.78;72.09
82746;BME280;72484;50.004;14.356;2024-03-02T10:18:27;97205.52;;;11.80;72.00
82746;BME280;72484;50.004;14.356;2024-03-02T10:21:55;97202.02;;;11.86;72.15
82746;BME280;72484;50.004;14.356;2024-03-02T10:28:16;97205.45;;;12.03;71.92
82746;BME280;72484;50.004;14.356;2024-03-02T10:32:32;97201.71;;;12.22;72.10
82746;BME280;72484;50.004;14.356;2024-03-02T10:35:53;97195.89;;;12.43;72.40
82746;BME280;72484;50.004;14.356;2024-03-02T10:40:12;97190.23;;;12.66;70.76
82746;BME280;72484;50.004;14.356;2024-03-02T10:43:47;97181.01;;;12.69;69.88
82746;BME280;72484;50.004;14.356;2024-03-02T10:47:24;97179.66;;;12.69;69.89
82746;BME280;72484;50.004;14.356;2024-03-02T10:51:02;97174.84;;;12.60;69.13
82746;BME280;72484;50.004;14.356;2024-03-02T10:54:22;97174.88;;;12.53;69.17
82746;BME280;72484;50.004;14.356;2024-03-02T10:58:40;97177.48;;;12.49;69.30
82746;BME280;72484;50.004;14.356;2024-03-02T11:02:18;97173.79;;;12.47;68.80
82746;BME280;72484;50.004;14.356;2024-03-02T11:05:41;97169.88;;;12.49;68.98
82746;BME280;72484;50.004;14.356;2024-03-02T11:09:44;97173.88;;;12.52;69.62
82746;BME280;72484;50.004;14.356;2024-03-02T11:14:06;97174.24;;;12.68;68.69
82746;BME280;72484;50.004;14.356;2024-03-02T11:17:26;97166.11;;;12.75;68.45
82746;BME280;72484;50.004;14.356;2024-03-02T11:21:43;97160.50;;;12.92;67.05
82746;BME280;72484;50.004;14.356;2024-03-02T11:25:27;97159.23;;;12.90;66.42
82746;BME280;72484;50.004;14.356;2024-03-02T11:28:41;97154.81;;;12.84;65.78
82746;BME280;72484;50.004;14.356;2024-03-02T11:32:41;97146.84;;;12.88;66.11
82746;BME280;72484;50.004;14.356;2024-03-02T11:36:40;97142.31;;;12.90;65.53
82746;BME280;72484;50.004;14.356;2024-03-02T11:40:56;97146.63;;;12.93;65.82
82746;BME280;72484;50.004;14.356;2024-03-02T11:44:34;97136.57;;;12.95;66.07
82746;BME280;72484;50.004;14.356;2024-03-02T11:48:13;97130.78;;;13.13;66.04
82746;BME280;72484;50.004;14.356;2024-03-02T11:51:34;97128.91;;;13.07;63.60
82746;BME280;72484;50.004;14.356;2024-03-02T11:55:35;97133.75;;;13.09;65.21
82746;BME280;72484;50.004;14.356;2024-03-02T11:59:53;97134.33;;;13.20;64.89
82746;BME280;72484;50.004;14.356;2024-03-02T12:03:30;97137.48;;;13.24;65.01
82746;BME280;72484;50.004;14.356;2024-03-02T12:07:09;97135.56;;;13.24;64.82
82746;BME280;72484;50.004;14.356;2024-03-02T12:10:29;97136.63;;;13.32;65.49
82746;BME280;72484;50.004;14.356;2024-03-02T12:14:28;97135.59;;;13.45;64.56
82746;BME280;72484;50.004;14.356;2024-03-02T12:18:45;97130.73;;;13.48;64.82
82746;BME280;72484;50.004;14.356;2024-03-02T12:22:23;97134.69;;;13.43;64.57
82746;BME280;72484;50.004;14.356;2024-03-02T12:26:01;97134.64;;;13.34;64.69
82746;BME280;72484;50.004;14.356;2024-03-02T12:29:39;97134.36;;;13.19;64.64
82746;BME280;72484;50.004;14.356;2024-03-02T12:33:18;97134.93;;;13.08;64.60
82746;BME280;72484;50.004;14.356;2024-03-02T12:36:54;97137.75;;;13.09;64.14
82746;BME280;72484;50.004;14.356;2024-03-02T12:40:15;97137.55;;;13.17;64.71
82746;BME280;72484;50.004;14.356;2024-03-02T12:44:34;97139.76;;;13.21;64.61
82746;BME280;72484;50.004;14.356;2024-03-02T12:48:12;97134.30;;;13.07;65.24
82746;BME280;72484;50.004;14.356;2024-03-02T12:51:48;97131.40;;;13.02;65.79
82746;BME280;72484;50.004;14.356;2024-03-02T12:55:26;97131.92;;;13.04;65.54
82746;BME280;72484;50.004;14.356;2024-03-02T12:58:47;97125.55;;;13.05;64.85
82746;BME280;72484;50.004;14.356;2024-03-02T13:02:47;97124.83;;;13.02;65.49
82746;BME280;72484;50.004;14.356;2024-03-02T13:06:48;97125.71;;;13.05;64.77
82746;BME280;72484;50.004;14.356;2024-03-02T13:11:04;97124.55;;;12.95;66.01
82746;BME280;72484;50.004;14.356;2024-03-02T13:14:24;97118.19;;;12.91;66.04
82746;BME280;72484;50.004;14.356;2024-03-02T13:18:40;97116.86;;;12.87;65.63
82746;BME280;72484;50.004;14.356;2024-03-02T13:22:01;97117.11;;;12.85;65.55
82746;BME280;72484;50.004;14.356;2024-03-02T13:26:17;97109.30;;;12.83;65.56
82746;BME280;72484;50.004;14.356;2024-03-02T13:29:55;97107.34;;;12.78;65.29
82746;BME280;72484;50.004;14.356;2024-03-02T13:33:33;97110.98;;;12.75;65.90
82746;BME280;72484;50.004;14.356;2024-03-02T13:37:10;97107.55;;;12.68;66.03
82746;BME280;72484;50.004;14.356;2024-03-02T13:40:49;97106.47;;;12.67;66.11
82746;BME280;72484;50.004;14.356;2024-03-02T13:44:09;97104.48;;;12.58;66.13
82746;BME280;72484;50.004;14.356;2024-03-02T13:48:24;97106.27;;;12.51;65.73
82746;BME280;72484;50.004;14.356;2024-03-02T13:51:45;97110.19;;;12.46;66.90
82746;BME280;72484;50.004;14.356;2024-03-02T13:55:44;97107.21;;;12.37;67.83
82746;BME280;72484;50.004;14.356;2024-03-02T14:00:00;97106.80;;;12.31;68.15
82746;BME280;72484;50.004;14.356;2024-03-02T14:03:21;97109.71;;;12.27;68.85
82746;BME280;72484;50.004;14.356;2024-03-02T14:07:38;97113.11;;;12.23;68.39
82746;BME280;72484;50.004;14.356;2024-03-02T14:10:57;97110.85;;;12.18;68.01
82746;BME280;72484;50.004;14.356;2024-03-02T14:14:57;97106.37;;;12.18;68.91
82746;BME280;72484;50.004;14.356;2024-03-02T14:19:13;97103.29;;;12.26;68.80
82746;BME280;72484;50.004;14.356;2024-03-02T14:22:50;97103.48;;;12.33;68.50
82746;BME280;72484;50.004;14.356;2024-03-02T14:26:11;97099.55;;;12.40;68.23
82746;BME280;72484;50.004;14.356;2024-03-02T14:30:12;97087.70;;;12.51;67.95
82746;BME280;72484;50.004;14.356;2024-03-02T14:34:11;97089.39;;;12.68;67.48
82746;BME280;72484;50.004;14.356;2024-03-02T14:38:09;97089.08;;;12.78;66.85
82746;BME280;72484;50.004;14.356;2024-03-02T14:42:08;97082.91;;;12.84;66.16
82746;BME280;72484;50.004;14.356;2024-03-02T14:46:25;97078.77;;;12.86;66.46
82746;BME280;72484;50.004;14.356;2024-03-02T14:50:02;97074.80;;;12.88;66.34
82746;BME280;72484;50.004;14.356;2024-03-02T14:53:40;97074.33;;;12.92;65.95
82746;BME280;72484;50.004;14.356;2024-03-02T14:57:00;97073.48;;;12.92;65.84
82746;BME280;72484;50.004;14.356;2024-03-02T15:01:00;97071.64;;;12.86;66.14
82746;BME280;72484;50.004;14.356;2024-03-02T15:04:58;97067.56;;;12.83;66.20
82746;BME280;72484;50.004;14.356;2024-03-02T15:09:16;97058.80;;;12.81;66.50
82746;BME280;72484;50.004;14.356;2024-03-02T15:12:54;97058.77;;;12.86;66.88
82746;BME280;72484;50.004;14.356;2024-03-02T15:16:14;97057.73;;;12.91;66.64
82746;BME280;72484;50.004;14.356;2024-03-02T15:20:14;97057.04;;;13.03;66.40
82746;BME280;72484;50.004;14.356;2024-03-02T15:24:31;97053.27;;;13.17;65.99
82746;BME280;72484;50.004;14.356;2024-03-02T15:28:09;97055.80;;;13.26;66.33
82746;BME280;72484;50.004;14.356;2024-03-02T15:31:47;97049.45;;;13.34;66.00
82746;BME280;72484;50.004;14.356;2024-03-02T15:35:24;97051.02;;;13.38;65.84
82746;BME280;72484;50.004;14.356;2024-03-02T15:38:44;97047.31;;;13.38;65.64
82746;BME280;72484;50.004;14.356;2024-03-02T15:43:03;97043.67;;;13.46;65.65
82746;BME280;72484;50.004;14.356;2024-03-02T15:46:21;97044.73;;;13.48;65.47
82746;BME280;72484;50.004;14.356;2024-03-02T15:50:19;97043.50;;;13.49;65.75
82746;BME280;72484;50.004;14.356;2024-03-02T15:54:35;97042.02;;;13.53;65.82
82746;BME280;72484;50.004;14.356;2024-03-02T15:57:56;97043.96;;;13.52;65.84
82746;BME280;72484;50.004;14.356;2024-03-02T16:01:55;97040.73;;;13.51;65.71
82746;BME280;72484;50.004;14.356;2024-03-02T16:06:12;97036.95;;;13.51;66.31
82746;BME280;72484;50.004;14.356;2024-03-02T16:09:32;97033.91;;;13.48;65.95
82746;BME280;72484;50.004;14.356;2024-03-02T16:13:31;97031.42;;;13.43;65.51
82746;BME280;72484;50.004;14.356;2024-03-02T16:17:49;97031.49;;;13.39;65.59
82746;BME280;72484;50.004;14.356;2024-03-02T16:21:24;97032.08;;;13.38;66.21
82746;BME280;72484;50.004;14.356;2024-03-02T16:25:03;97029.34;;;13.34;66.59
82746;BME280;72484;50.004;14.356;2024-03-02T16:28:40;97028.76;;;13.32;67.11
82746;BME280;72484;50.004;14.356;2024-03-02T16:32:17;97031.19;;;13.29;66.86
82746;BME280;72484;50.004;14.356;2024-03-02T16:35:55;97035.61;;;13.23;66.87
82746;BME280;72484;50.004;14.356;2024-03-02T16:39:33;97042.38;;;13.14;67.14
82746;BME280;72484;50.004;14.356;2024-03-02T16:43:12;97041.91;;;13.13;67.26
82746;BME280;72484;50.004;14.356;2024-03-02T16:46:32;97041.40;;;13.06;67.77
82746;BME280;72484;50.004;14.356;2024-03-02T16:50:32;97040.91;;;13.04;68.01
82746;BME280;72484;50.004;14.356;2024-03-02T16:54:31;97041.65;;;12.98;68.48
82746;BME280;72484;50.004;14.356;2024-03-02T16:58:47;97041.14;;;12.93;68.96
82746;BME280;72484;50.004;14.356;2024-03-02T17:02:25;97041.20;;;12.87;68.92
82746;BME280;72484;50.004;14.356;2024-03-02T17:06:05;97048.86;;;12.79;68.89
82746;BME280;72484;50.004;14.356;2024-03-02T17:09:23;97050.27;;;12.64;68.99
82746;BME280;72484;50.004;14.356;2024-03-02T17:13:38;97047.48;;;12.53;69.56
82746;BME280;72484;50.004;14.356;2024-03-02T17:16:59;97046.25;;;12.40;69.78
82746;BME280;72484;50.004;14.356;2024-03-02T17:21:14;97048.02;;;12.37;69.49
82746;BME280;72484;50.004;14.356;2024-03-02T17:24:35;97047.38;;;12.28;69.10
82746;BME280;72484;50.004;14.356;2024-03-02T17:28:52;97048.98;;;12.31;69.08
82746;BME280;72484;50.004;14.356;2024-03-02T17:32:29;97056.34;;;12.27;69.16
82746;BME280;72484;50.004;14.356;2024-03-02T17:36:09;97051.79;;;12.24;69.19
82746;BME280;72484;50.004;14.356;2024-03-02T17:39:28;97056.27;;;12.14;69.45
82746;BME280;72484;50.004;14.356;2024-03-02T17:43:26;97059.84;;;12.09;69.53
82746;BME280;72484;50.004;14.356;2024-03-02T17:47:25;97065.23;;;12.04;69.48
82746;BME280;72484;50.004;14.356;2024-03-02T17:51:23;97061.30;;;12.02;69.93
82746;BME280;72484;50.004;14.356;2024-03-02T17:55:22;97059.17;;;12.01;69.79
82746;BME280;72484;50.004;14.356;2024-03-02T17:59:38;97058.71;;;12.00;69.79
82746;BME280;72484;50.004;14.356;2024-03-02T18:02:59;97061.95;;;11.95;69.83
82746;BME280;72484;50.004;14.356;2024-03-02T18:06:57;97062.61;;;11.95;70.22
82746;BME280;72484;50.004;14.356;2024-03-02T18:10:56;97056.77;;;11.94;70.04
82746;BME280;72484;50.004;14.356;2024-03-02T18:15:11;97058.39;;;11.97;70.18
82746;BME280;72484;50.004;14.356;2024-03-02T18:18:32;97056.93;;;11.97;69.87
82746;BME280;72484;50.004;14.356;2024-03-02T18:22:47;97058.17;;;11.99;70.06
82746;BME280;72484;50.004;14.356;2024-03-02T18:26:08;97058.13;;;12.00;69.66
82746;BME280;72484;50.004;14.356;2024-03-02T18:30:07;97057.59;;;11.99;69.44
82746;BME280;72484;50.004;14.356;2024-03-02T18:34:25;97055.27;;;12.00;69.96
82746;BME280;72484;50.004;14.356;2024-03-02T18:37:45;97050.33;;;11.99;70.00
82746;BME280;72484;50.004;14.356;2024-03-02T18:42:01;97047.16;;;12.01;70.36
82746;BME280;72484;50.004;14.356;2024-03-02T18:45:22;97047.65;;;12.00;70.59
82746;BME280;72484;50.004;14.356;2024-03-02T18:49:43;97044.13;;;12.00;70.69
82746;BME280;72484;50.004;14.356;2024-03-02T18:53:15;97041.82;;;11.97;70.75
82746;BME280;72484;50.004;14.356;2024-03-02T18:56:35;97038.55;;;11.97;70.63
82746;BME280;72484;50.004;14.356;2024-03-02T19:00:51;97033.73;;;11.98;70.55
82746;BME280;72484;50.004;14.356;2024-03-02T19:04:11;97040.52;;;12.01;70.27
82746;BME280;72484;50.004;14.356;2024-03-02T19:08:28;97033.08;;;11.99;70.03
82746;BME280;72484;50.004;14.356;2024-03-02T19:12:06;97027.55;;;11.87;69.52
82746;BME280;72484;50.004;14.356;2024-03-02T19:15:43;97029.13;;;11.68;69.72
82746;BME280;72484;50.004;14.356;2024-03-02T19:19:21;97028.59;;;11.51;70.02
82746;BME280;72484;50.004;14.356;2024-03-02T19:22:41;97032.64;;;11.40;70.55
82746;BME280;72484;50.004;14.356;2024-03-02T19:26:39;97037.23;;;11.27;70.87
82746;BME280;72484;50.004;14.356;2024-03-02T19:30:55;97038.20;;;11.21;71.62
82746;BME280;72484;50.004;14.356;2024-03-02T19:34:16;97037.79;;;11.11;72.57
82746;BME280;72484;50.004;14.356;2024-03-02T19:38:36;97035.02;;;11.04;73.11
82746;BME280;72484;50.004;14.356;2024-03-02T19:41:57;97031.44;;;10.96;73.38
82746;BME280;72484;50.004;14.356;2024-03-02T19:46:13;97031.04;;;10.92;73.44
82746;BME280;72484;50.004;14.356;2024-03-02T19:49:34;97029.97;;;10.87;73.24
82746;BME280;72484;50.004;14.356;2024-03-02T19:53:33;97028.45;;;10.76;73.72